• Join FlightAware (Why Join?)
  • Login
  • US Flag 
02:25AM EDT


 

Airport Tracker/Info


-or-


 

Live Flight TrackerFlight Track Log ✈ QFA1073 ✈ 02-Aug-2013 ✈ YBRM / BME - YPPH / PER

Flight Track Log - Related Links

Times and Time Zones

All times are in EDT time to prevent confusion due to time zone crossing. See the QFA1073 flight status page for this flight to view local times or setup timezone preferences in your user account.

Time Position Orientation Groundspeed Altitude Reporting Facility
EDT Latitude Longitude Course Direction KTS MPH feet Rate Location/Type
03:28AM -31.6980 116.1130 208° Southwest 239 275 4,300  Level FlightAware
03:28AM -31.7170 116.1010 208° Southwest 221 254 4,100 -540 Descending FlightAware
03:28AM -31.7300 116.0930 208° Southwest 223 257 4,000 -420 Descending FlightAware
03:29AM -31.7440 116.0840 209° Southwest 220 253 3,900 -480 Descending FlightAware
03:29AM -31.7520 116.0780 213° Southwest 206 237 3,800 -960 Descending FlightAware
03:29AM -31.7620 116.0650 228° Southwest 204 235 3,500 -1,200 Descending FlightAware
03:29AM -31.7730 116.0470 234° Southwest 201 231 3,100 -1,080 Descending FlightAware
03:30AM -31.7820 116.0330 233° Southwest 199 229 2,900 -1,080 Descending FlightAware
03:30AM -31.7930 116.0160 233° Southwest 194 223 2,500 -1,080 Descending FlightAware
03:30AM -31.8030 116.0050 223° Southwest 192 221 2,300 -900 Descending FlightAware
03:30AM -31.8070 116.0040 192° South 192 221 2,200 -1,200 Descending FlightAware
03:30AM -31.8160 116.0010 196° South 184 212 2,000 -1,200 Descending FlightAware
03:31AM -31.8370 115.9950 194° South 184 212 1,500 -1,080 Descending FlightAware
03:31AM -31.8530 115.9910 192° South 169 194 1,200 -900 Descending FlightAware
03:31AM -31.8680 115.9860 196° South 150 173 900 -840 Descending FlightAware
03:32AM -31.8840 115.9820 192° South 147 169 600 -720 Descending FlightAware
03:32AM -31.8970 115.9780 195° South 139 160 400  Descending FlightAware
03:33AM -31.9120 115.9730 196° South 147 169  Descending FlightAware
03:33AM -31.9250 115.9700 191° South 148 170  Level FlightAware
03:33AM -31.9340 115.9670 196° South 149 171  Level FlightAware
03:54AM -31.8949 115.9784 270° West 147 169 700  Climbing Aus ATC (RADAR)